createdAt,value
2023-02-25T00:02:34.546Z,0.32
2023-02-25T00:07:38.187Z,1.00
2023-02-25T00:12:42.783Z,0.70
2023-02-25T00:17:48.094Z,3.55
2023-02-25T00:22:51.849Z,1.87
2023-02-25T00:27:55.542Z,1.77
2023-02-25T00:33:01.097Z,1.63
2023-02-25T00:38:15.351Z,1.23
2023-02-25T00:43:19.797Z,1.17
2023-02-25T00:48:25.161Z,1.45
2023-02-25T00:53:29.395Z,2.43
2023-02-25T00:58:33.053Z,3.25
2023-02-25T01:03:38.338Z,1.38
2023-02-25T01:08:42.110Z,3.50
2023-02-25T01:13:45.747Z,3.05
2023-02-25T01:18:53.510Z,1.63
2023-02-25T01:23:58.635Z,1.42
2023-02-25T01:29:02.484Z,1.30
2023-02-25T01:34:09.593Z,1.90
2023-02-25T01:39:14.765Z,5.72
2023-02-25T01:44:20.409Z,2.33
2023-02-25T01:49:29.194Z,2.70
2023-02-25T01:54:34.708Z,2.35
2023-02-25T01:59:39.975Z,2.57
2023-02-25T02:04:47.838Z,1.52
2023-02-25T02:09:51.781Z,1.75
2023-02-25T02:14:57.470Z,0.55
2023-02-25T02:20:15.594Z,0.90
2023-02-25T02:25:54.587Z,1.75
2023-02-25T02:31:33.914Z,2.67
2023-02-25T02:36:48.788Z,2.10
2023-02-25T02:42:00.396Z,4.03
2023-02-25T02:47:10.136Z,2.63
2023-02-25T02:52:19.108Z,2.80
2023-02-25T02:57:25.206Z,3.25
2023-02-25T03:02:35.049Z,1.52
2023-02-25T03:07:44.139Z,1.75
2023-02-25T03:12:47.869Z,2.38
2023-02-25T03:17:59.967Z,1.42
2023-02-25T03:23:08.245Z,2.83
2023-02-25T03:28:26.785Z,3.00
2023-02-25T03:33:37.496Z,1.33
2023-02-25T03:38:45.809Z,1.08
2023-02-25T03:43:54.318Z,2.40
2023-02-25T03:49:02.522Z,2.60
2023-02-25T03:54:06.477Z,1.40
2023-02-25T03:59:10.143Z,2.63
2023-02-25T04:04:15.525Z,2.83
2023-02-25T04:09:19.555Z,1.92
2023-02-25T04:14:23.233Z,3.90
2023-02-25T04:19:28.515Z,2.72
2023-02-25T04:24:32.175Z,2.75
2023-02-25T04:29:35.783Z,1.90
2023-02-25T04:34:41.095Z,2.03
2023-02-25T04:39:44.705Z,2.67
2023-02-25T04:44:48.469Z,4.00
2023-02-25T04:49:53.746Z,6.75
2023-02-25T04:54:57.356Z,4.10
2023-02-25T05:00:01.003Z,4.22
2023-02-25T05:05:07.774Z,3.45
2023-02-25T05:10:13.867Z,4.18
2023-02-25T05:15:17.506Z,3.47
2023-02-25T05:20:22.892Z,4.20
2023-02-25T05:25:26.537Z,4.07
2023-02-25T05:30:30.288Z,3.83
2023-02-25T05:35:35.590Z,4.32
2023-02-25T05:40:40.566Z,4.55
2023-02-25T05:45:44.190Z,4.13
2023-02-25T05:50:49.530Z,4.70
2023-02-25T05:55:53.155Z,3.60
2023-02-25T06:00:57.468Z,4.13
2023-02-25T06:11:08.568Z,2.70
2023-02-25T06:16:12.323Z,7.78
2023-02-25T06:21:17.716Z,4.78
2023-02-25T06:26:21.601Z,4.18
2023-02-25T06:31:25.770Z,3.92
2023-02-25T06:36:31.929Z,3.65
2023-02-25T06:41:35.541Z,3.67
2023-02-25T06:46:39.207Z,5.47
2023-02-25T06:51:44.498Z,3.63
2023-02-25T06:56:48.100Z,2.95
2023-02-25T07:01:51.743Z,4.90
2023-02-25T07:06:57.043Z,5.78
2023-02-25T07:12:00.647Z,7.15
2023-02-25T07:17:04.278Z,5.93
2023-02-25T07:22:12.525Z,7.13
2023-02-25T07:27:16.152Z,7.65
2023-02-25T07:32:20.052Z,4.95
2023-02-25T07:37:25.471Z,7.18
2023-02-25T07:42:29.676Z,7.93
2023-02-25T07:47:33.267Z,7.13
2023-02-25T07:52:38.562Z,6.95
2023-02-25T07:57:42.803Z,6.00
2023-02-25T08:02:46.606Z,7.47
2023-02-25T08:07:51.913Z,7.18
2023-02-25T08:12:55.523Z,5.47
2023-02-25T08:17:59.121Z,4.78
2023-02-25T08:23:04.763Z,3.90
2023-02-25T08:28:09.206Z,3.80
2023-02-25T08:33:13.089Z,4.63
2023-02-25T08:38:18.422Z,4.65
2023-02-25T08:43:22.099Z,3.92
2023-02-25T08:48:26.177Z,4.28
2023-02-25T08:53:31.436Z,3.50
2023-02-25T08:58:35.622Z,3.42
2023-02-25T09:03:39.456Z,4.45
2023-02-25T09:08:44.808Z,4.15
2023-02-25T09:13:48.463Z,3.08
2023-02-25T09:18:52.563Z,3.92
2023-02-25T09:23:57.984Z,3.50
2023-02-25T09:29:02.055Z,3.03
2023-02-25T09:34:07.465Z,3.42
2023-02-25T09:39:13.456Z,1.77
2023-02-25T09:44:20.402Z,1.73
2023-02-25T09:49:29.898Z,1.15
2023-02-25T09:54:38.923Z,2.13
2023-02-25T09:59:42.575Z,3.22
2023-02-25T10:04:58.840Z,2.88
2023-02-25T10:10:09.082Z,2.13
2023-02-25T10:15:34.635Z,2.63
2023-02-25T10:20:49.713Z,3.03
2023-02-25T10:25:59.632Z,3.72
2023-02-25T10:31:07.717Z,2.50
2023-02-25T10:36:15.730Z,2.28
2023-02-25T10:41:23.219Z,2.85
2023-02-25T10:46:35.179Z,3.83
2023-02-25T10:51:38.844Z,2.75
2023-02-25T10:56:46.516Z,1.67
2023-02-25T11:01:50.807Z,2.63
2023-02-25T11:06:54.507Z,2.80
2023-02-25T11:12:01.320Z,2.28
2023-02-25T11:17:08.336Z,1.88
2023-02-25T11:22:18.402Z,3.15
2023-02-25T11:27:33.107Z,2.72
2023-02-25T11:32:41.360Z,1.92
2023-02-25T11:37:46.462Z,2.63
2023-02-25T11:43:14.911Z,3.00
2023-02-25T11:48:21.991Z,1.42
2023-02-25T11:53:36.170Z,1.75
2023-02-25T11:58:50.359Z,2.92
2023-02-25T12:04:28.410Z,1.83
2023-02-25T12:10:16.400Z,2.08
2023-02-25T12:15:46.675Z,1.77
2023-02-25T12:21:31.379Z,1.60
2023-02-25T12:26:51.189Z,2.28
2023-02-25T12:32:12.404Z,3.72
2023-02-25T12:37:30.284Z,2.05
2023-02-25T12:43:06.663Z,1.45
2023-02-25T12:48:41.768Z,2.13
2023-02-25T12:53:55.734Z,1.48
2023-02-25T12:59:42.637Z,2.10
2023-02-25T13:05:04.897Z,0.60
2023-02-25T13:10:34.360Z,1.50
2023-02-25T13:15:48.813Z,1.35
2023-02-25T13:21:13.693Z,1.88
2023-02-25T13:26:39.248Z,1.33
2023-02-25T13:31:52.536Z,1.52
2023-02-25T13:37:31.582Z,1.25
2023-02-25T13:43:06.494Z,1.25
2023-02-25T13:48:33.913Z,1.10
2023-02-25T13:54:05.662Z,1.83
2023-02-25T13:59:45.795Z,1.70
2023-02-25T14:05:17.227Z,1.40
2023-02-25T14:10:34.126Z,1.42
2023-02-25T14:15:52.683Z,2.03
2023-02-25T14:21:09.860Z,1.67
2023-02-25T14:26:39.928Z,1.38
2023-02-25T14:32:10.777Z,2.28
2023-02-25T14:37:36.600Z,0.68
2023-02-25T14:42:58.322Z,2.10
2023-02-25T14:48:05.363Z,0.30
2023-02-25T14:53:54.242Z,0.40
2023-02-25T14:59:41.759Z,0.52
2023-02-25T15:10:28.235Z,0.70
2023-02-25T15:15:49.034Z,0.50
2023-02-25T15:20:53.914Z,0.65
2023-02-25T15:26:21.912Z,0.70
2023-02-25T15:31:30.883Z,0.65
2023-02-25T15:36:43.189Z,0.75
2023-02-25T15:42:03.237Z,0.32
2023-02-25T15:47:32.695Z,0.38
2023-02-25T15:52:55.960Z,0.85
2023-02-25T15:57:59.794Z,1.13
2023-02-25T16:03:42.229Z,0.70
2023-02-25T16:08:56.560Z,3.53
2023-02-25T16:14:03.905Z,1.38
2023-02-25T16:19:14.975Z,1.17
2023-02-25T16:24:20.515Z,1.95
2023-02-25T16:29:48.316Z,1.27
2023-02-25T16:35:01.282Z,0.45
2023-02-25T16:40:05.792Z,0.32
2023-02-25T16:45:22.242Z,0.63
2023-02-25T16:50:29.464Z,0.35
2023-02-25T16:55:40.770Z,0.35
2023-02-25T17:00:51.069Z,0.38
2023-02-25T17:06:15.527Z,1.00
2023-02-25T17:11:20.506Z,0.63
2023-02-25T17:16:28.190Z,0.47
2023-02-25T17:21:36.493Z,0.13
2023-02-25T17:26:42.694Z,0.30
2023-02-25T17:31:49.492Z,0.63
2023-02-25T17:36:56.220Z,0.30
2023-02-25T17:41:59.948Z,0.98
2023-02-25T17:47:04.094Z,0.63
2023-02-25T17:52:19.126Z,0.73
2023-02-25T17:57:24.996Z,0.30
2023-02-25T18:02:35.823Z,0.70
2023-02-25T18:07:42.387Z,0.43
2023-02-25T18:12:49.056Z,0.35
2023-02-25T18:17:55.344Z,0.38
2023-02-25T18:23:02.217Z,0.47
2023-02-25T18:28:07.836Z,0.60
2023-02-25T18:33:11.786Z,0.47
2023-02-25T18:38:20.599Z,0.73
2023-02-25T18:43:25.555Z,0.70
2023-02-25T18:48:29.203Z,0.28
2023-02-25T18:53:34.979Z,0.65
2023-02-25T18:58:38.623Z,1.27
2023-02-25T19:03:42.634Z,1.38
2023-02-25T19:08:47.928Z,3.05
2023-02-25T19:13:51.954Z,1.02
2023-02-25T19:18:57.145Z,0.20
2023-02-25T19:24:02.541Z,0.25
2023-02-25T19:29:06.266Z,0.83
2023-02-25T19:34:09.904Z,0.45
2023-02-25T19:39:15.188Z,0.35
2023-02-25T19:44:18.826Z,0.38
2023-02-25T19:49:23.126Z,0.95
2023-02-25T19:54:28.473Z,1.75
2023-02-25T19:59:32.265Z,0.73
2023-02-25T20:04:36.118Z,1.15
2023-02-25T20:09:42.763Z,0.25
2023-02-25T20:14:46.384Z,0.43
2023-02-25T20:19:50.002Z,1.20
2023-02-25T20:24:55.329Z,0.40
2023-02-25T20:29:59.170Z,0.33
2023-02-25T20:35:03.330Z,0.30
2023-02-25T20:40:12.602Z,0.28
2023-02-25T20:45:17.088Z,0.65
2023-02-25T20:50:26.800Z,0.95
2023-02-25T20:55:32.101Z,1.38
2023-02-25T21:00:35.729Z,0.63
2023-02-25T21:05:39.353Z,0.52
2023-02-25T21:10:44.646Z,1.75
2023-02-25T21:15:48.279Z,0.50
2023-02-25T21:20:58.039Z,0.40
2023-02-25T21:26:04.753Z,0.90
2023-02-25T21:31:10.688Z,0.50
2023-02-25T21:36:14.615Z,0.55
2023-02-25T21:41:20.040Z,3.28
2023-02-25T21:46:24.129Z,0.60
2023-02-25T21:51:29.443Z,1.05
2023-02-25T21:56:34.797Z,0.30
2023-02-25T22:01:39.966Z,2.33
2023-02-25T22:06:43.578Z,0.52
2023-02-25T22:11:48.864Z,0.30
2023-02-25T22:16:52.492Z,0.70
2023-02-25T22:21:56.156Z,1.20
2023-02-25T22:27:01.533Z,0.40
2023-02-25T22:32:05.253Z,0.13
2023-02-25T22:37:08.936Z,0.20
2023-02-25T22:42:14.224Z,0.20
2023-02-25T22:47:17.889Z,1.10
2023-02-25T22:52:21.529Z,2.42
2023-02-25T22:57:26.950Z,1.02
2023-02-25T23:02:30.613Z,1.20
2023-02-25T23:07:34.270Z,0.28
2023-02-25T23:12:39.626Z,1.48
2023-02-25T23:17:43.275Z,2.10
2023-02-25T23:22:46.928Z,1.80
2023-02-25T23:27:52.287Z,0.30
2023-02-25T23:32:58.120Z,0.80
2023-02-25T23:38:01.775Z,0.95
2023-02-25T23:43:08.065Z,0.77
2023-02-25T23:48:11.697Z,2.72
2023-02-25T23:53:15.336Z,2.38
2023-02-25T23:58:20.641Z,3.35
